Accueil
METAR-TAF:

METAR-TAF

Aéroports :

Havre-Saint-Pierre, Québec, Canada

Aéroport de Havre-Saint-Pierre

latitude: 50-17N, longitude: 063-37W, altitude: 33 m

Observation

Le bulletin a été fait il y a 36 minutes, à 02:00 UTC
Vent 9 kt de ouest/nord-ouest
Température -14°C
Humidité 60%
Pression 1033 hPa
Visibilité: 14.5 km
Nuages épars à une hauteur de 24000 ft

METAR: CYGV 230200Z AUTO 29009KT 9SM SCT240 M14/M20 A3050 RMK SLP335

Heure: 21:36 (02:36 UTC)

Prévision

Le bulletin a été fait il y a 58 minutes, à 01:38 UTC
Prévision valable du 23 à 02 UTC au 23 à 14 UTC
Vent 7 kt de ouest/nord-ouest
Visibilité: 10 km
Quelques nuages à une hauteur de 24000 ft
Evoluant progressivement
du 23 à 09 UTC au 23 à 11 UTC
Vent 7 kt de ouest

TAF: CYGV 230138Z 2302/2314 29007KT P6SM FEW240 BECMG 2309/2311 27007KT RMK FCST BASED ON AUTO OBS. NXT FCST BY 230800Z

Observations et prévisions météorologiques de plus de 4000 aéroports (messages METAR et TAF).

Les stations disponibles sont représentées par des disques jaunes et rouges sur la carte.

Passer la souris dessus pour voir le nom de la station.

Cliquer dessus pour voir les observations et prévisions météorologiques.

Pour changer de carte: cliquez sur les boutons verts avec une croix noire pour zoomer, sur le bouton vert avec un tiret pour effectuer un zoom arrière, ou sur les flèches vertes pour les cartes adjacentes.


METAR-TAF: